Time;durP1;ratioP1;P1;durP2;ratioP2;P2;SDS_P1;SDS_P2;PMS_P1;PMS_P2;Temp;Humidity;BMP_temperature;BMP_pressure;BME280_temperature;BME280_humidity;BME280_pressure;Samples;Min_cycle;Max_cycle;Signal;HPM_P1;HPM_P2
2022/04/16 00:01:19;;;;;;;;;;;;;;;12.52;62.85;99841.31;5249756;27;34895;-88
2022/04/16 00:03:47;;;;;;;;;;;;;;;12.65;62.52;99850.59;5250203;27;33879;-88
2022/04/16 00:06:16;;;;;;;;;;;;;;;12.59;62.67;99843.75;5255565;27;33995;-88
2022/04/16 00:08:44;;;;;;;;;;;;;;;12.62;62.43;99837.62;5249390;27;34091;-89
2022/04/16 00:11:13;;;;;;;;;;;;;;;12.62;62.55;99832.44;5249239;27;34887;-89
2022/04/16 00:13:42;;;;;;;;;;;;;;;12.53;62.89;99830.00;5249622;27;34335;-89
2022/04/16 00:16:11;;;;;;;;;;;;;;;12.55;62.91;99816.06;5249937;27;35146;-90
2022/04/16 00:18:42;;;;;;;;;;;;;;;12.42;63.20;99822.41;5255722;27;33069;-89
2022/04/16 00:21:10;;;;;;;;;;;;;;;12.21;64.07;99813.25;5249866;27;33904;-92
2022/04/16 00:23:39;;;;;;;;;;;;;;;12.20;64.21;99813.25;5249737;27;34160;-89
2022/04/16 00:26:08;;;;;;;;;;;;;;;11.92;65.46;99816.34;5248807;27;34822;-90
2022/04/16 00:28:36;;;;;;;;;;;;;;;11.67;66.49;99808.94;5249352;27;34410;-89
2022/04/16 00:31:06;;;;;;;;;;;;;;;11.74;66.48;99809.66;5255199;27;34504;-89
2022/04/16 00:33:35;;;;;;;;;;;;;;;11.74;66.46;99809.66;5252250;27;34172;-89
2022/04/16 00:36:04;;;;;;;;;;;;;;;11.90;65.84;99812.91;5249413;27;34379;-90
2022/04/16 00:38:33;;;;;;;;;;;;;;;11.70;66.26;99816.66;5249407;27;33160;-88
2022/04/16 00:41:02;;;;;;;;;;;;;;;11.65;66.27;99808.09;5249801;27;33613;-89
2022/04/16 00:43:30;;;;;;;;;;;;;;;11.60;66.17;99819.41;5255978;27;33943;-89
2022/04/16 00:46:00;;;;;;;;;;;;;;;11.73;65.74;99800.16;5250258;27;34484;-88
2022/04/16 00:48:29;;;;;;;;;;;;;;;11.59;65.88;99794.31;5250259;27;33462;-89
2022/04/16 00:50:59;;;;;;;;;;;;;;;11.45;65.96;99800.59;5251846;27;33945;-89
2022/04/16 00:53:28;;;;;;;;;;;;;;;11.44;65.60;99806.66;5249198;27;35192;-92
2022/04/16 00:55:57;;;;;;;;;;;;;;;11.28;65.85;99798.25;5248972;27;35009;-89
2022/04/16 00:58:26;;;;;;;;;;;;;;;11.64;64.25;99795.09;5255620;27;34213;-91
2022/04/16 01:00:54;;;;;;;;;;;;;;;11.59;63.69;99791.72;5248880;27;34883;-87
2022/04/16 01:03:23;;;;;;;;;;;;;;;11.34;64.18;99784.31;5249851;27;34457;-90
2022/04/16 01:05:55;;;;;;;;;;;;;;;11.21;64.57;99793.16;5249178;27;34472;-89
2022/04/16 01:08:23;;;;;;;;;;;;;;;11.29;64.30;99780.94;5251204;27;33930;-89
2022/04/16 01:10:52;;;;;;;;;;;;;;;11.31;64.02;99786.97;5255299;27;33341;-89
2022/04/16 01:13:20;;;;;;;;;;;;;;;11.31;63.92;99786.97;5249380;27;32794;-89
2022/04/16 01:15:50;;;;;;;;;;;;;;;11.14;64.42;99778.53;5249779;27;35150;-91
2022/04/16 01:18:18;;;;;;;;;;;;;;;11.25;63.81;99779.25;5249506;27;34283;-88
2022/04/16 01:20:47;;;;;;;;;;;;;;;11.05;64.53;99776.94;5249433;27;33662;-91
2022/04/16 01:23:17;;;;;;;;;;;;;;;11.16;63.79;99782.81;5255527;27;34333;-90
2022/04/16 01:25:45;;;;;;;;;;;;;;;10.98;64.40;99777.91;5249784;27;34493;-90
2022/04/16 01:28:13;;;;;;;;;;;;;;;10.84;64.61;99781.50;5250419;27;34546;-88
2022/04/16 01:30:42;;;;;;;;;;;;;;;10.77;64.78;99799.78;5249220;27;34443;-88
2022/04/16 01:33:11;;;;;;;;;;;;;;;11.03;64.05;99787.34;5250107;27;34595;-89
2022/04/16 01:35:39;;;;;;;;;;;;;;;11.03;63.92;99781.28;5255395;27;35150;-91
2022/04/16 01:38:08;;;;;;;;;;;;;;;11.24;63.21;99782.72;5249947;27;33620;-88
2022/04/16 01:40:39;;;;;;;;;;;;;;;10.88;64.23;99784.94;5248886;27;33643;-91
2022/04/16 01:43:08;;;;;;;;;;;;;;;11.02;63.85;99790.81;5248372;27;33944;-88
2022/04/16 01:45:36;;;;;;;;;;;;;;;10.95;64.22;99793.53;5248879;27;34513;-87
2022/04/16 01:48:06;;;;;;;;;;;;;;;10.59;65.26;99798.28;5247703;27;33543;-91
2022/04/16 01:50:35;;;;;;;;;;;;;;;10.57;65.63;99802.63;5255165;27;34163;-91
2022/04/16 01:53:03;;;;;;;;;;;;;;;10.60;65.39;99797.38;5249587;27;35060;-88
2022/04/16 01:55:32;;;;;;;;;;;;;;;10.36;66.30;99795.94;5248916;27;34730;-88
2022/04/16 01:58:03;;;;;;;;;;;;;;;10.37;66.41;99801.09;5249565;27;34045;-89
2022/04/16 02:00:32;;;;;;;;;;;;;;;10.66;65.42;99797.34;5248204;27;33868;-90
2022/04/16 02:03:01;;;;;;;;;;;;;;;10.66;65.35;99797.34;5255237;27;35024;-89
2022/04/16 02:05:29;;;;;;;;;;;;;;;10.73;65.10;99796.38;5249216;27;34744;-89
2022/04/16 02:07:58;;;;;;;;;;;;;;;10.41;66.36;99797.63;5249022;27;33646;-89
2022/04/16 02:10:26;;;;;;;;;;;;;;;10.51;65.86;99789.72;5248744;27;34943;-89
2022/04/16 02:12:55;;;;;;;;;;;;;;;10.48;65.71;99797.53;5249152;27;33952;-90
2022/04/16 02:15:24;;;;;;;;;;;;;;;10.07;67.34;99797.03;5254935;27;34418;-89
2022/04/16 02:17:55;;;;;;;;;;;;;;;10.09;67.32;99787.53;5248712;27;33563;-89
2022/04/16 02:20:24;;;;;;;;;;;;;;;10.19;67.15;99783.97;5248521;27;34903;-90
2022/04/16 02:22:53;;;;;;;;;;;;;;;10.13;67.22;99791.81;5248938;27;34483;-89
2022/04/16 02:25:24;;;;;;;;;;;;;;;10.14;67.35;99782.28;5249459;27;34009;-89
2022/04/16 02:27:53;;;;;;;;;;;;;;;10.26;67.02;99784.75;5254545;27;33512;-89
2022/04/16 02:30:22;;;;;;;;;;;;;;;10.07;67.59;99789.25;5254497;27;34217;-89
2022/04/16 02:32:53;;;;;;;;;;;;;;;10.29;66.82;99779.56;5249606;27;34240;-89
2022/04/16 02:35:22;;;;;;;;;;;;;;;10.22;67.11;99783.06;5248873;27;33967;-89
2022/04/16 02:37:50;;;;;;;;;;;;;;;10.18;67.16;99774.47;5249448;27;33518;-89
2022/04/16 02:40:19;;;;;;;;;;;;;;;10.09;67.66;99784.94;5249472;27;34554;-89
2022/04/16 02:42:47;;;;;;;;;;;;;;;10.21;67.21;99790.00;5255071;27;33954;-90
2022/04/16 02:48:05;;;;;;;;;;;;;;;10.42;66.24;99775.13;5249307;27;33498;-91
2022/04/16 02:50:33;;;;;;;;;;;;;;;10.49;65.90;99779.37;5248937;27;34222;-90
2022/04/16 02:53:02;;;;;;;;;;;;;;;10.48;65.82;99769.00;5249508;27;33864;-89
2022/04/16 02:55:31;;;;;;;;;;;;;;;10.37;66.21;99774.31;5252578;27;34274;-88
2022/04/16 02:58:03;;;;;;;;;;;;;;;10.20;66.59;99757.19;5256036;27;33056;-88
2022/04/16 03:00:31;;;;;;;;;;;;;;;10.29;66.43;99766.59;5250444;27;34929;-91
2022/04/16 03:03:00;;;;;;;;;;;;;;;10.33;66.21;99767.44;5250159;27;33065;-89
2022/04/16 03:05:30;;;;;;;;;;;;;;;10.21;66.58;99774.44;5250206;27;34218;-89
2022/04/16 03:07:58;;;;;;;;;;;;;;;10.11;67.15;99772.81;5250096;27;33558;-88
2022/04/16 03:10:27;;;;;;;;;;;;;;;10.00;67.25;99753.91;5256187;27;33688;-89
2022/04/16 03:12:56;;;;;;;;;;;;;;;10.02;67.22;99754.75;5249678;27;34518;-88
2022/04/16 03:18:10;;;;;;;;;;;;;;;9.82;67.61;99755.81;5249768;27;33639;-87
2022/04/16 03:20:42;;;;;;;;;;;;;;;9.79;67.87;99761.03;5249934;27;34144;-89
2022/04/16 03:23:10;;;;;;;;;;;;;;;9.63;68.44;99762.03;5250540;27;33940;-89
2022/04/16 03:25:40;;;;;;;;;;;;;;;10.00;67.00;99770.34;5255855;27;33954;-88
2022/04/16 03:28:09;;;;;;;;;;;;;;;10.09;66.66;99776.31;5249410;27;33331;-89
2022/04/16 03:30:37;;;;;;;;;;;;;;;10.07;66.63;99775.44;5249478;27;33507;-91
2022/04/16 03:33:09;;;;;;;;;;;;;;;10.04;66.69;99774.59;5248960;27;35080;-89
2022/04/16 03:35:38;;;;;;;;;;;;;;;10.12;66.19;99782.31;5249049;27;34135;-91
2022/04/16 03:38:08;;;;;;;;;;;;;;;10.22;65.78;99790.84;5256129;27;34145;-91
2022/04/16 03:40:36;;;;;;;;;;;;;;;10.01;66.39;99799.72;5251078;27;34208;-89
2022/04/16 03:43:05;;;;;;;;;;;;;;;10.28;65.65;99784.75;5249186;27;35087;-90
2022/04/16 03:45:34;;;;;;;;;;;;;;;10.31;65.40;99780.41;5249107;27;34022;-90
2022/04/16 03:48:03;;;;;;;;;;;;;;;10.11;66.21;99784.94;5250120;27;33308;-91
2022/04/16 03:50:32;;;;;;;;;;;;;;;9.98;66.44;99772.09;5256450;27;34027;-91
2022/04/16 03:53:01;;;;;;;;;;;;;;;9.90;66.93;99785.97;5250097;27;33937;-88
2022/04/16 04:01:15;;;;;;;;;;;;;;;9.77;67.45;99788.69;5183997;27;33731;-88
2022/04/16 04:03:46;;;;;;;;;;;;;;;9.65;67.95;99787.94;5183377;27;34679;-91
2022/04/16 04:06:15;;;;;;;;;;;;;;;9.69;68.04;99792.19;5183236;27;34017;-89
2022/04/16 04:08:43;;;;;;;;;;;;;;;9.66;68.07;99789.63;5189100;27;33254;-91
2022/04/16 04:11:13;;;;;;;;;;;;;;;9.82;67.52;99801.59;5183501;27;34657;-88
2022/04/16 04:13:41;;;;;;;;;;;;;;;9.64;68.11;99800.03;5183146;27;34470;-90
2022/04/16 04:16:10;;;;;;;;;;;;;;;9.44;68.92;99799.28;5183658;27;34750;-89
2022/04/16 04:18:39;;;;;;;;;;;;;;;9.56;68.24;99810.41;5183345;27;34114;-89
2022/04/16 04:21:07;;;;;;;;;;;;;;;9.52;68.32;99815.63;5189008;27;33744;-91
2022/04/16 04:23:35;;;;;;;;;;;;;;;9.52;68.54;99818.22;5182870;27;33965;-90
2022/04/16 04:26:04;;;;;;;;;;;;;;;9.48;68.57;99806.19;5183112;27;35438;-89
2022/04/16 04:28:34;;;;;;;;;;;;;;;9.37;68.97;99804.53;5182891;27;34333;-89
2022/04/16 04:31:02;;;;;;;;;;;;;;;9.57;68.42;99800.94;5164807;27;33237;-89
2022/04/16 04:33:33;;;;;;;;;;;;;;;9.31;69.21;99807.12;5238931;27;35309;-88
2022/04/16 04:36:01;;;;;;;;;;;;;;;9.63;68.61;99821.59;5249821;27;33689;-89
2022/04/16 04:38:29;;;;;;;;;;;;;;;9.73;68.14;99822.38;5250192;27;33141;-92
2022/04/16 04:40:58;;;;;;;;;;;;;;;10.05;67.01;99837.66;5250286;27;33990;-89
2022/04/16 04:43:27;;;;;;;;;;;;;;;10.11;66.47;99837.62;5250858;27;33696;-91
2022/04/16 04:45:57;;;;;;;;;;;;;;;10.07;66.66;99833.34;5251082;27;35058;-89
2022/04/16 04:48:25;;;;;;;;;;;;;;;10.20;66.06;99842.72;5255386;27;36099;-89
2022/04/16 04:50:54;;;;;;;;;;;;;;;10.30;65.82;99840.94;5250337;27;34467;-92
2022/04/16 04:53:24;;;;;;;;;;;;;;;10.15;66.10;99841.06;5250405;27;34129;-90
2022/04/16 04:55:57;;;;;;;;;;;;;;;10.27;65.65;99843.53;5250423;27;35294;-89
2022/04/16 04:58:25;;;;;;;;;;;;;;;9.96;66.71;99840.34;5249296;27;33937;-91
2022/04/16 05:00:54;;;;;;;;;;;;;;;10.03;66.54;99842.88;5255517;27;35023;-90
2022/04/16 05:03:24;;;;;;;;;;;;;;;9.95;66.72;99849.00;5249680;27;34262;-89
2022/04/16 05:05:52;;;;;;;;;;;;;;;9.84;67.53;99843.91;5250678;27;34228;-89
2022/04/16 05:08:21;;;;;;;;;;;;;;;10.24;66.08;99849.63;5249494;27;34048;-90
2022/04/16 05:10:49;;;;;;;;;;;;;;;10.54;64.77;99845.03;5250891;27;33905;-89
2022/04/16 05:13:17;;;;;;;;;;;;;;;10.58;64.55;99851.03;5255341;27;34333;-88
2022/04/16 05:15:46;;;;;;;;;;;;;;;10.80;63.58;99847.34;5250180;27;34267;-90
2022/04/16 05:18:17;;;;;;;;;;;;;;;10.86;63.00;99861.97;5250606;27;33445;-89
2022/04/16 05:20:47;;;;;;;;;;;;;;;11.54;60.91;99854.16;5250957;27;34324;-90
2022/04/16 05:23:15;;;;;;;;;;;;;;;12.16;58.20;99851.47;5250505;27;36222;-91
2022/04/16 05:25:52;;;;;;;;;;;;;;;12.53;57.11;99856.87;5253450;27;34472;-92
2022/04/16 05:28:24;;;;;;;;;;;;;;;12.51;56.69;99863.84;5253456;27;33724;-89
2022/04/16 05:30:58;;;;;;;;;;;;;;;12.54;56.60;99858.63;5251182;27;33832;-89
2022/04/16 05:36:17;;;;;;;;;;;;;;;12.10;57.56;99867.19;5250262;27;34546;-91
2022/04/16 05:38:45;;;;;;;;;;;;;;;11.39;59.58;99881.22;5249344;27;35663;-89
2022/04/16 05:41:14;;;;;;;;;;;;;;;11.30;60.46;99874.38;5249822;27;34895;-90
2022/04/16 05:43:43;;;;;;;;;;;;;;;10.97;61.31;99880.00;5255556;27;34004;-90
2022/04/16 05:46:12;;;;;;;;;;;;;;;11.01;61.16;99874.75;5250610;27;33696;-90
2022/04/16 05:48:40;;;;;;;;;;;;;;;11.27;60.43;99873.56;5250087;27;33458;-89
2022/04/16 05:51:12;;;;;;;;;;;;;;;11.09;60.89;99874.69;5250215;27;34068;-91
2022/04/16 05:53:41;;;;;;;;;;;;;;;11.25;60.53;99881.38;5249171;27;34113;-89
2022/04/16 05:56:10;;;;;;;;;;;;;;;10.80;61.63;99875.88;5255261;27;35320;-89
2022/04/16 05:58:38;;;;;;;;;;;;;;;10.84;62.01;99885.31;5249288;27;33108;-89
2022/04/16 06:01:07;;;;;;;;;;;;;;;10.61;62.37;99883.00;5249925;27;34106;-89
2022/04/16 06:03:36;;;;;;;;;;;;;;;10.56;62.75;99883.91;5248830;27;34966;-90
2022/04/16 06:06:05;;;;;;;;;;;;;;;10.50;62.88;99890.03;5249650;27;34646;-90
2022/04/16 06:08:33;;;;;;;;;;;;;;;10.54;62.68;99896.06;5254839;27;33314;-90
2022/04/16 06:11:05;;;;;;;;;;;;;;;10.81;62.04;99893.16;5250042;27;34421;-89
2022/04/16 06:13:33;;;;;;;;;;;;;;;10.76;62.17;99891.50;5250208;27;34084;-88
2022/04/16 06:16:02;;;;;;;;;;;;;;;10.74;61.87;99888.06;5250248;27;34157;-90
2022/04/16 06:18:35;;;;;;;;;;;;;;;10.80;61.63;99877.59;5249912;27;34208;-89
2022/04/16 06:21:04;;;;;;;;;;;;;;;10.48;62.54;99883.12;5248100;27;33872;-89
2022/04/16 06:23:32;;;;;;;;;;;;;;;10.76;61.83;99889.75;5255223;27;34107;-90
2022/04/16 06:26:01;;;;;;;;;;;;;;;10.85;61.54;99887.06;5248672;27;35195;-90
2022/04/16 06:28:31;;;;;;;;;;;;;;;11.05;60.54;99892.03;5247869;27;33731;-90
2022/04/16 06:31:01;;;;;;;;;;;;;;;11.29;60.07;99893.47;5249847;27;35131;-90
2022/04/16 06:33:29;;;;;;;;;;;;;;;11.27;59.67;99910.78;5250093;27;34443;-89
2022/04/16 06:35:58;;;;;;;;;;;;;;;11.21;59.92;99902.22;5255153;27;34284;-90
2022/04/16 06:38:55;;;;;;;;;;;;;;;11.39;59.88;99904.59;5250403;27;33614;-89
2022/04/16 06:41:39;;;;;;;;;;;;;;;11.52;59.52;99906.16;5222934;27;33780;-90
2022/04/16 06:48:31;;;;;;;;;;;;;;;11.88;57.89;99901.31;5211239;27;35944;-92
2022/04/16 06:51:09;;;;;;;;;;;;;;;12.01;57.32;99904.59;5255366;27;34113;-90
2022/04/16 06:53:38;;;;;;;;;;;;;;;12.07;56.91;99908.84;5248151;27;34328;-89
2022/04/16 07:00:05;;;;;;;;;;;;;;;;;;;;;
2022/04/16 07:06:44;;;;;;;;;;;;;;;11.99;56.54;99906.38;5170974;27;35130;-89
2022/04/16 07:18:43;;;;;;;;;;;;;;;12.72;53.60;99914.66;5225716;27;34909;-91
2022/04/16 07:24:37;;;;;;;;;;;;;;;12.47;54.65;99913.41;5222683;27;35175;-92
2022/04/16 07:27:31;;;;;;;;;;;;;;;12.51;54.32;99915.03;5226004;27;34963;-89
2022/04/16 07:30:53;;;;;;;;;;;;;;;12.43;53.89;99920.38;5225621;27;34634;-89
2022/04/16 07:40:24;;;;;;;;;;;;;;;13.21;52.43;99931.09;5059718;28;32862;-88
2022/04/16 09:49:05;;;;;;;;;;;;;;;13.54;49.87;99981.69;5185699;27;34181;-92
2022/04/16 09:51:35;;;;;;;;;;;;;;;13.87;49.54;99979.28;5168116;27;34396;-92
2022/04/16 09:54:04;;;;;;;;;;;;;;;13.96;48.87;99972.97;5160776;27;34326;-89
2022/04/16 09:56:33;;;;;;;;;;;;;;;13.96;48.71;99973.81;5161083;27;34469;-93
2022/04/16 09:59:06;;;;;;;;;;;;;;;14.50;48.15;99973.44;5226391;27;33923;-92
2022/04/16 10:01:35;;;;;;;;;;;;;;;14.85;46.51;99974.31;5233651;27;34496;-91
2022/04/16 10:04:06;;;;;;;;;;;;;;;14.57;46.78;99987.22;5227901;27;34751;-91
2022/04/16 10:06:34;;;;;;;;;;;;;;;14.69;46.68;99957.31;5228421;27;34396;-90
2022/04/16 10:09:13;;;;;;;;;;;;;;;14.85;46.61;99973.47;5227521;27;33107;-91
2022/04/16 10:14:29;;;;;;;;;;;;;;;14.57;47.11;99975.91;5227291;27;34324;-90
2022/04/16 10:16:59;;;;;;;;;;;;;;;14.48;46.67;99972.63;5233596;27;34060;-91
2022/04/16 10:19:38;;;;;;;;;;;;;;;14.78;46.44;99970.16;5226874;27;33015;-89
2022/04/16 10:22:07;;;;;;;;;;;;;;;14.67;46.17;99970.44;5227177;27;34968;-90
2022/04/16 10:24:35;;;;;;;;;;;;;;;14.25;47.39;99967.94;5227219;27;33978;-91
2022/04/16 10:27:04;;;;;;;;;;;;;;;14.27;47.41;99970.53;5227109;27;34722;-91
2022/04/16 10:29:37;;;;;;;;;;;;;;;14.34;46.77;99973.84;5233902;27;33942;-92
2022/04/16 10:32:14;;;;;;;;;;;;;;;14.39;46.28;99967.59;5228814;27;34964;-90
2022/04/16 10:34:45;;;;;;;;;;;;;;;14.24;46.88;99975.81;5226854;27;34145;-90
2022/04/16 10:37:22;;;;;;;;;;;;;;;14.33;46.58;99979.94;5227067;27;34532;-90
2022/04/16 10:39:54;;;;;;;;;;;;;;;14.23;46.82;99979.31;5227270;27;33971;-90
2022/04/16 10:42:32;;;;;;;;;;;;;;;14.34;46.67;99973.84;5227085;27;34972;-91
2022/04/16 10:45:22;;;;;;;;;;;;;;;14.48;46.23;99969.16;5227129;27;33966;-90
2022/04/16 10:47:50;;;;;;;;;;;;;;;14.68;46.12;99976.50;5233165;27;34005;-89
2022/04/16 10:50:20;;;;;;;;;;;;;;;14.90;45.03;99974.19;5226833;27;33686;-92
2022/04/16 10:52:52;;;;;;;;;;;;;;;14.89;44.73;99967.28;5227453;27;34343;-91
2022/04/16 10:55:25;;;;;;;;;;;;;;;14.90;45.12;99975.03;5227330;27;34271;-90
2022/04/16 10:58:01;;;;;;;;;;;;;;;14.51;45.18;99967.31;5227824;27;34357;-92
2022/04/16 11:00:37;;;;;;;;;;;;;;;14.73;45.12;99969.41;5227211;27;33851;-90
2022/04/16 11:03:06;;;;;;;;;;;;;;;14.60;44.58;99960.19;5233785;27;34768;-90
2022/04/16 11:05:37;;;;;;;;;;;;;;;14.60;45.01;99960.19;5226861;27;34168;-90
2022/04/16 11:08:06;;;;;;;;;;;;;;;14.41;45.30;99959.75;5226692;27;34389;-91
2022/04/16 11:10:34;;;;;;;;;;;;;;;14.54;45.12;99963.78;5227372;27;33593;-91
2022/04/16 11:13:03;;;;;;;;;;;;;;;14.31;44.75;99966.94;5227048;27;33332;-90
2022/04/16 11:15:32;;;;;;;;;;;;;;;14.22;45.10;99972.38;5234403;27;34191;-92
2022/04/16 11:18:01;;;;;;;;;;;;;;;14.29;45.15;99971.34;5228032;27;34008;-89
2022/04/16 11:20:29;;;;;;;;;;;;;;;14.45;44.54;99969.22;5227801;27;33582;-91
2022/04/16 11:22:59;;;;;;;;;;;;;;;14.24;44.95;99974.06;5228158;27;34094;-90
2022/04/16 11:34:14;;;;;;;;;;;;;;;14.13;46.76;99973.44;5229692;27;32998;-93
2022/04/16 11:36:37;;;;;;;;;;;;;;;13.77;46.20;99973.41;5233606;27;34398;-90
2022/04/16 11:39:06;;;;;;;;;;;;;;;13.87;46.96;99976.66;5227653;27;34996;-91
2022/04/16 11:41:35;;;;;;;;;;;;;;;13.93;48.04;99975.66;5228203;27;34163;-92
2022/04/16 11:44:04;;;;;;;;;;;;;;;13.53;48.44;99972.19;5230282;27;34571;-91
2022/04/16 11:46:38;;;;;;;;;;;;;;;13.59;50.32;99977.25;5228212;27;34148;-90
2022/04/16 11:49:07;;;;;;;;;;;;;;;13.49;50.88;99977.47;5234205;27;34995;-90
2022/04/16 11:54:47;;;;;;;;;;;;;;;13.50;53.61;99973.97;5228300;27;34663;-91
2022/04/16 11:57:20;;;;;;;;;;;;;;;13.40;53.33;99978.50;5228526;27;34267;-91
2022/04/16 11:59:56;;;;;;;;;;;;;;;13.34;53.61;99974.28;5227460;27;34043;-88
2022/04/16 12:02:29;;;;;;;;;;;;;;;13.31;55.82;99976.09;5228965;27;33534;-91
2022/04/16 12:05:07;;;;;;;;;;;;;;;13.17;53.08;99968.53;5228098;27;33581;-90
2022/04/16 12:07:35;;;;;;;;;;;;;;;12.80;51.57;99970.03;5234175;27;33831;-91
2022/04/16 12:10:06;;;;;;;;;;;;;;;12.80;54.38;99970.03;5228459;27;35270;-88
2022/04/16 12:12:41;;;;;;;;;;;;;;;12.86;52.68;99965.63;5226045;27;33381;-88
2022/04/16 12:15:10;;;;;;;;;;;;;;;13.00;50.35;99955.81;5226275;27;33474;-88
2022/04/16 12:17:39;;;;;;;;;;;;;;;13.27;51.76;99953.56;5226316;27;33934;-89
2022/04/16 12:20:08;;;;;;;;;;;;;;;13.53;49.19;99951.31;5230286;27;35143;-91
2022/04/16 12:22:50;;;;;;;;;;;;;;;13.80;49.28;99939.44;5233389;27;33036;-88
2022/04/16 12:25:20;;;;;;;;;;;;;;;14.05;46.63;99942.31;5227385;27;34894;-90
2022/04/16 12:27:52;;;;;;;;;;;;;;;14.31;47.72;99940.84;5226660;27;35052;-90
2022/04/16 12:33:53;;;;;;;;;;;;;;;15.02;44.58;99933.81;5219430;27;33214;-90
2022/04/16 12:50:23;;;;;;;;;;;;;;;14.99;42.12;99926.94;5080094;28;34235;-89
2022/04/16 12:53:02;;;;;;;;;;;;;;;15.09;42.15;99924.91;5078187;28;34129;-89
2022/04/16 12:55:36;;;;;;;;;;;;;;;15.28;41.07;99920.88;5076937;28;33901;-90
2022/04/16 12:58:05;;;;;;;;;;;;;;;15.62;39.92;99926.88;5077620;28;33549;-89
2022/04/16 13:00:34;;;;;;;;;;;;;;;15.79;39.82;99922.88;5079240;28;34769;-90
2022/04/16 13:03:04;;;;;;;;;;;;;;;15.95;39.86;99925.87;5093925;28;34205;-90
2022/04/16 13:05:33;;;;;;;;;;;;;;;15.96;38.70;99908.41;5125518;28;35164;-91
2022/04/16 13:08:08;;;;;;;;;;;;;;;15.72;39.55;99913.50;5120325;28;33149;-89
2022/04/16 13:10:39;;;;;;;;;;;;;;;15.46;39.54;99922.09;5121934;28;33575;-89
2022/04/16 13:13:07;;;;;;;;;;;;;;;15.44;39.25;99921.31;5129494;27;34332;-92
2022/04/16 13:15:36;;;;;;;;;;;;;;;15.23;39.98;99919.31;5206252;27;33987;-89
2022/04/16 13:18:07;;;;;;;;;;;;;;;15.28;40.10;99912.19;5211816;27;34466;-90
2022/04/16 13:20:35;;;;;;;;;;;;;;;15.22;39.83;99918.47;5203922;27;33765;-90
2022/04/16 13:23:04;;;;;;;;;;;;;;;15.57;39.35;99921.78;5205634;27;34243;-90
2022/04/16 13:25:33;;;;;;;;;;;;;;;15.50;39.06;99920.25;5172531;27;899541;-91
2022/04/16 14:16:46;;;;;;;;;;;;;;;14.64;41.50;99927.84;5031583;28;35491;-90
2022/04/16 14:19:54;;;;;;;;;;;;;;;14.54;41.63;99931.63;5076062;28;34662;-91
2022/04/16 14:22:29;;;;;;;;;;;;;;;14.51;41.43;99929.91;5081882;28;33091;-89
2022/04/16 14:27:54;;;;;;;;;;;;;;;14.49;41.29;99935.16;5159597;27;35092;-90
2022/04/16 14:30:23;;;;;;;;;;;;;;;14.50;41.39;99934.28;5171165;27;34480;-90
2022/04/16 14:33:12;;;;;;;;;;;;;;;14.47;41.58;99933.47;5186150;27;32692;-91
2022/04/16 14:36:03;;;;;;;;;;;;;;;14.50;41.64;99939.50;5182632;27;33454;-90
2022/04/16 14:38:43;;;;;;;;;;;;;;;14.48;41.26;99937.81;5184173;27;34490;-90
2022/04/16 14:41:59;;;;;;;;;;;;;;;14.27;42.01;99941.81;5131778;27;34126;-89
2022/04/16 14:44:40;;;;;;;;;;;;;;;14.28;41.54;99935.72;5182741;27;33655;-90
2022/04/16 14:47:36;;;;;;;;;;;;;;;14.22;41.66;99948.91;5173902;27;35397;-89
2022/04/16 14:50:06;;;;;;;;;;;;;;;14.13;42.04;99949.13;5190381;27;35354;-89
2022/04/16 14:52:36;;;;;;;;;;;;;;;14.14;42.36;99953.47;5186273;27;34541;-90
2022/04/16 14:55:06;;;;;;;;;;;;;;;14.30;42.30;99967.81;5185295;27;33644;-89
2022/04/16 14:57:42;;;;;;;;;;;;;;;14.13;42.31;99949.13;5184304;27;33945;-88
2022/04/16 15:00:11;;;;;;;;;;;;;;;14.15;42.89;99965.59;5184357;27;34749;-91
2022/04/16 15:02:40;;;;;;;;;;;;;;;13.94;42.47;99962.59;5188975;27;34265;-88
2022/04/16 15:05:09;;;;;;;;;;;;;;;13.78;43.06;99975.09;5189944;27;33430;-91
2022/04/16 15:07:57;;;;;;;;;;;;;;;13.88;43.50;99978.37;5196390;27;36003;-90
2022/04/16 15:10:40;;;;;;;;;;;;;;;13.91;48.63;99985.28;5206554;27;34318;-90
2022/04/16 15:13:11;;;;;;;;;;;;;;;14.00;53.02;99993.75;5205415;27;34632;-90
2022/04/16 15:19:09;;;;;;;;;;;;;;;13.69;58.63;99997.91;5162426;27;35167;-89
2022/04/16 15:21:41;;;;;;;;;;;;;;;14.24;57.70;100004.53;5181077;27;34506;-90
2022/04/16 15:24:15;;;;;;;;;;;;;;;14.01;57.03;100016.34;5206137;27;34213;-88
2022/04/16 15:26:46;;;;;;;;;;;;;;;13.64;59.24;100024.06;5211262;27;34242;-88
2022/04/16 15:35:24;;;;;;;;;;;;;;;13.70;60.00;100031.78;5184964;27;34702;-89
2022/04/16 15:44:07;;;;;;;;;;;;;;;13.85;60.02;100041.88;5203986;27;34784;-89
2022/04/16 15:59:26;;;;;;;;;;;;;;;13.02;65.64;100063.41;5204822;27;34416;-90
2022/04/16 16:05:59;;;;;;;;;;;;;;;13.31;65.64;100056.84;5157999;27;35230;-89
2022/04/16 16:11:22;;;;;;;;;;;;;;;13.56;65.12;100059.88;5156465;27;35281;-89
2022/04/16 16:14:00;;;;;;;;;;;;;;;13.75;65.19;100056.00;5159960;27;33374;-89
2022/04/16 16:16:35;;;;;;;;;;;;;;;13.86;64.67;100061.00;5159472;27;32703;-89
2022/04/16 16:19:04;;;;;;;;;;;;;;;13.80;64.33;100066.34;5165930;27;33919;-89
2022/04/16 16:21:34;;;;;;;;;;;;;;;13.83;63.92;100061.91;5160641;27;34410;-89
2022/04/16 16:24:03;;;;;;;;;;;;;;;13.76;64.53;100060.31;5159806;27;33701;-89
2022/04/16 16:26:31;;;;;;;;;;;;;;;13.59;65.51;100065.03;5158578;27;34172;-89
2022/04/16 16:28:59;;;;;;;;;;;;;;;13.51;65.11;100069.53;5160673;27;34450;-88
2022/04/16 16:31:29;;;;;;;;;;;;;;;13.37;66.34;100072.41;5166206;27;34022;-88
2022/04/16 16:33:57;;;;;;;;;;;;;;;13.60;65.97;100075.44;5159764;27;34183;-88
2022/04/16 16:36:26;;;;;;;;;;;;;;;13.65;66.26;100077.91;5185196;27;35160;-88
2022/04/16 16:38:58;;;;;;;;;;;;;;;13.55;65.41;100079.00;5205631;27;34627;-88
2022/04/16 16:41:31;;;;;;;;;;;;;;;13.68;65.26;100083.09;5205424;27;35044;-86
2022/04/16 16:44:00;;;;;;;;;;;;;;;13.26;66.78;100072.53;5204288;27;33071;-87
2022/04/16 16:46:28;;;;;;;;;;;;;;;13.37;65.97;100077.59;5211051;27;35085;-88
2022/04/16 16:48:57;;;;;;;;;;;;;;;13.11;66.82;100086.69;5204628;27;33817;-87
2022/04/16 16:51:26;;;;;;;;;;;;;;;13.34;66.47;100082.88;5204220;27;34281;-88
2022/04/16 16:53:55;;;;;;;;;;;;;;;13.13;67.51;100084.94;5204043;27;33895;-88
2022/04/16 16:56:25;;;;;;;;;;;;;;;13.18;67.30;100090.06;5184848;27;33090;-88
2022/04/16 16:58:54;;;;;;;;;;;;;;;12.98;67.83;100101.69;5210673;27;34131;-88
2022/04/16 17:01:22;;;;;;;;;;;;;;;13.33;65.19;100099.38;5203957;27;34511;-88
2022/04/16 17:06:37;;;;;;;;;;;;;;;13.28;64.66;100117.69;5204428;27;35072;-89
2022/04/16 17:09:05;;;;;;;;;;;;;;;13.32;64.19;100126.34;5203191;27;33831;-89
2022/04/16 17:11:35;;;;;;;;;;;;;;;13.30;63.86;100130.72;5204614;27;33956;-90
2022/04/16 17:19:34;;;;;;;;;;;;;;;12.99;65.85;100154.63;5205561;27;34316;-90
2022/04/16 17:22:09;;;;;;;;;;;;;;;13.10;65.25;100150.13;5190190;27;33823;-89
2022/04/16 17:24:37;;;;;;;;;;;;;;;12.70;67.00;100161.12;5206555;27;33622;-88
2022/04/16 17:27:07;;;;;;;;;;;;;;;12.83;67.08;100167.03;5207039;27;34028;-89
2022/04/16 17:29:39;;;;;;;;;;;;;;;13.03;66.24;100172.78;5212013;27;33729;-90
2022/04/16 17:32:07;;;;;;;;;;;;;;;12.84;64.33;100180.91;5207286;27;34344;-89
2022/04/16 17:34:36;;;;;;;;;;;;;;;12.35;66.28;100175.47;5206130;27;34299;-89
2022/04/16 17:37:04;;;;;;;;;;;;;;;12.38;66.12;100190.19;5206493;27;33907;-90
2022/04/16 17:39:33;;;;;;;;;;;;;;;11.87;69.19;100195.97;5208978;27;34324;-89
2022/04/16 17:42:09;;;;;;;;;;;;;;;12.29;68.39;100191.16;5211507;27;34171;-89
2022/04/16 17:44:39;;;;;;;;;;;;;;;12.33;68.42;100210.22;5193038;27;34765;-89
2022/04/16 17:47:07;;;;;;;;;;;;;;;12.60;65.04;100207.25;5205141;27;34623;-88
2022/04/16 17:49:38;;;;;;;;;;;;;;;12.60;62.69;100211.59;5205547;27;34144;-88
2022/04/16 17:52:07;;;;;;;;;;;;;;;12.28;63.50;100215.47;5205047;27;35199;-89
2022/04/16 17:54:36;;;;;;;;;;;;;;;12.23;62.61;100216.41;5206958;27;33669;-88
2022/04/16 17:57:05;;;;;;;;;;;;;;;11.97;62.85;100225.34;5212410;27;34833;-88
2022/04/16 17:59:34;;;;;;;;;;;;;;;11.73;63.33;100231.59;5206689;27;34844;-88
2022/04/16 18:02:04;;;;;;;;;;;;;;;11.88;63.88;100238.44;5205657;27;34793;-88
2022/04/16 18:04:32;;;;;;;;;;;;;;;11.63;64.84;100236.03;5206808;27;33820;-89
2022/04/16 18:07:01;;;;;;;;;;;;;;;11.27;67.88;100248.44;5207018;27;34049;-89